WZZ527D EPGD-EYVI
Flight info
| Callsign | WZZ527D |
|---|---|
| Flight time | 0h 49m |
| Altitude | 35000 |
| Route | IRLUN N133 GRUDA N858 BOKSU DCT IRKAL |
| Aircraft | A321/M-SDE3FGHIRWY/LB1 |
Departure
| Time | 2026-05-05 01:42 |
|---|---|
| Airport | Gdańsk Lech Wałęsa Airport (EPGD) |
Arrival
| Time | 2026-05-05 02:31 |
|---|---|
| Airport | Vilnius International Airport (EYVI) |
| Time | Latitude | Longitude | Altitude | Speed | Heading |
|---|---|---|---|---|---|
| 2026-05-05 00:56 | 54.38189 | 18.46315 | 460 ft | 0 kts | 23° |
| 2026-05-05 01:32 | 54.38188 | 18.46314 | 460 ft | 1 kts | 22° |
| 2026-05-05 01:33 | 54.38166 | 18.46296 | 460 ft | 4 kts | 40° |
| 2026-05-05 01:33 | 54.38154 | 18.46266 | 458 ft | 4 kts | 103° |
| 2026-05-05 01:33 | 54.38156 | 18.46256 | 460 ft | 0 kts | 113° |
| 2026-05-05 01:35 | 54.38154 | 18.46261 | 459 ft | 1 kts | 113° |
| 2026-05-05 01:36 | 54.38154 | 18.46264 | 460 ft | 0 kts | 113° |
| 2026-05-05 01:36 | 54.38143 | 18.46308 | 460 ft | 9 kts | 113° |
| 2026-05-05 01:36 | 54.38107 | 18.46449 | 457 ft | 14 kts | 112° |
| 2026-05-05 01:36 | 54.38056 | 18.46587 | 458 ft | 12 kts | 165° |
| 2026-05-05 01:37 | 54.37965 | 18.46582 | 458 ft | 13 kts | 169° |
| 2026-05-05 01:37 | 54.37914 | 18.46710 | 459 ft | 14 kts | 110° |
| 2026-05-05 01:37 | 54.37876 | 18.46874 | 458 ft | 15 kts | 116° |
| 2026-05-05 01:37 | 54.37830 | 18.47049 | 459 ft | 17 kts | 113° |
| 2026-05-05 01:38 | 54.37783 | 18.47238 | 460 ft | 18 kts | 113° |
| 2026-05-05 01:38 | 54.37733 | 18.47438 | 461 ft | 18 kts | 113° |
| 2026-05-05 01:38 | 54.37685 | 18.47631 | 463 ft | 17 kts | 113° |
| 2026-05-05 01:38 | 54.37640 | 18.47813 | 468 ft | 16 kts | 113° |
| 2026-05-05 01:39 | 54.37598 | 18.47984 | 470 ft | 15 kts | 113° |
| 2026-05-05 01:39 | 54.37558 | 18.48144 | 473 ft | 14 kts | 113° |
| 2026-05-05 01:39 | 54.37520 | 18.48299 | 479 ft | 14 kts | 113° |
| 2026-05-05 01:39 | 54.37476 | 18.48479 | 481 ft | 19 kts | 112° |
| 2026-05-05 01:40 | 54.37418 | 18.48710 | 491 ft | 24 kts | 112° |
| 2026-05-05 01:40 | 54.37349 | 18.48990 | 493 ft | 26 kts | 114° |
| 2026-05-05 01:40 | 54.37280 | 18.49242 | 485 ft | 20 kts | 128° |
| 2026-05-05 01:40 | 54.37177 | 18.49203 | 491 ft | 17 kts | 231° |
| 2026-05-05 01:41 | 54.37165 | 18.49012 | 493 ft | 18 kts | 291° |
| 2026-05-05 01:41 | 54.37235 | 18.48733 | 489 ft | 51 kts | 293° |
| 2026-05-05 01:41 | 54.37476 | 18.47756 | 467 ft | 125 kts | 293° |
| 2026-05-05 01:41 | 54.37888 | 18.46095 | 599 ft | 166 kts | 292° |
| 2026-05-05 01:42 | 54.38353 | 18.44280 | 1305 ft | 167 kts | 294° |
| 2026-05-05 01:42 | 54.38825 | 18.42463 | 2055 ft | 165 kts | 292° |
| 2026-05-05 01:42 | 54.39275 | 18.40616 | 2554 ft | 176 kts | 292° |
| 2026-05-05 01:42 | 54.39772 | 18.38559 | 2835 ft | 196 kts | 292° |
| 2026-05-05 01:43 | 54.40326 | 18.36270 | 3092 ft | 219 kts | 292° |
| 2026-05-05 01:43 | 54.40923 | 18.33804 | 3733 ft | 225 kts | 292° |
| 2026-05-05 01:43 | 54.41529 | 18.31310 | 4529 ft | 227 kts | 291° |
| 2026-05-05 01:43 | 54.42138 | 18.28803 | 5323 ft | 228 kts | 291° |
| 2026-05-05 01:44 | 54.42754 | 18.26278 | 6109 ft | 230 kts | 291° |
| 2026-05-05 01:44 | 54.43317 | 18.23712 | 6882 ft | 230 kts | 279° |
| 2026-05-05 01:44 | 54.43186 | 18.21010 | 7587 ft | 231 kts | 246° |
| 2026-05-05 01:44 | 54.42178 | 18.18875 | 8297 ft | 238 kts | 214° |
| 2026-05-05 01:45 | 54.40664 | 18.17669 | 9031 ft | 242 kts | 206° |
| 2026-05-05 01:45 | 54.39097 | 18.16562 | 9737 ft | 245 kts | 206° |
| 2026-05-05 01:45 | 54.37509 | 18.15464 | 10458 ft | 248 kts | 202° |
| 2026-05-05 01:45 | 54.35776 | 18.15069 | 11158 ft | 259 kts | 179° |
| 2026-05-05 01:46 | 54.34001 | 18.15968 | 11618 ft | 282 kts | 154° |
| 2026-05-05 01:46 | 54.32439 | 18.18273 | 11831 ft | 310 kts | 137° |
| 2026-05-05 01:46 | 54.30898 | 18.21045 | 12009 ft | 333 kts | 137° |
| 2026-05-05 01:46 | 54.29235 | 18.24005 | 12153 ft | 354 kts | 141° |
| 2026-05-05 01:47 | 54.27199 | 18.26498 | 12308 ft | 366 kts | 157° |
| 2026-05-05 01:47 | 54.24834 | 18.28199 | 12799 ft | 372 kts | 162° |
| 2026-05-05 01:47 | 54.22422 | 18.29827 | 13456 ft | 374 kts | 163° |
| 2026-05-05 01:47 | 54.20022 | 18.31441 | 14116 ft | 377 kts | 163° |
| 2026-05-05 01:48 | 54.17575 | 18.33087 | 14764 ft | 379 kts | 163° |
| 2026-05-05 01:48 | 54.15113 | 18.34743 | 15422 ft | 382 kts | 163° |
| 2026-05-05 01:48 | 54.12633 | 18.36411 | 16068 ft | 384 kts | 163° |
| 2026-05-05 01:48 | 54.10136 | 18.38090 | 16703 ft | 387 kts | 164° |
| 2026-05-05 01:49 | 54.07629 | 18.39776 | 17320 ft | 389 kts | 164° |
| 2026-05-05 01:49 | 54.05101 | 18.41476 | 17907 ft | 392 kts | 164° |
| 2026-05-05 01:49 | 54.02561 | 18.43182 | 18504 ft | 394 kts | 164° |
| 2026-05-05 01:49 | 53.99997 | 18.44901 | 19059 ft | 397 kts | 164° |
| 2026-05-05 01:50 | 53.97418 | 18.46627 | 19628 ft | 400 kts | 164° |
| 2026-05-05 01:50 | 53.94814 | 18.48363 | 20170 ft | 403 kts | 164° |
| 2026-05-05 01:50 | 53.92193 | 18.50113 | 20680 ft | 406 kts | 163° |
| 2026-05-05 01:50 | 53.89554 | 18.51870 | 21171 ft | 409 kts | 164° |
| 2026-05-05 01:51 | 53.86890 | 18.53639 | 21659 ft | 412 kts | 163° |
| 2026-05-05 01:51 | 53.84245 | 18.55394 | 22106 ft | 415 kts | 163° |
| 2026-05-05 01:51 | 53.81551 | 18.57183 | 22559 ft | 417 kts | 163° |
| 2026-05-05 01:51 | 53.78835 | 18.58984 | 22993 ft | 420 kts | 163° |
| 2026-05-05 01:52 | 53.76105 | 18.60788 | 23410 ft | 423 kts | 163° |
| 2026-05-05 01:52 | 53.73355 | 18.62626 | 23823 ft | 426 kts | 163° |
| 2026-05-05 01:52 | 53.70604 | 18.64566 | 24233 ft | 429 kts | 162° |
| 2026-05-05 01:52 | 53.67854 | 18.66578 | 24615 ft | 433 kts | 161° |
| 2026-05-05 01:53 | 53.65090 | 18.68633 | 24991 ft | 435 kts | 161° |
| 2026-05-05 01:53 | 53.62310 | 18.70702 | 25343 ft | 439 kts | 161° |
| 2026-05-05 01:53 | 53.59580 | 18.73074 | 25688 ft | 448 kts | 150° |
| 2026-05-05 01:53 | 53.57247 | 18.76629 | 26019 ft | 461 kts | 133° |
| 2026-05-05 01:54 | 53.55583 | 18.81303 | 26337 ft | 473 kts | 114° |
| 2026-05-05 01:54 | 53.54824 | 18.86717 | 26658 ft | 482 kts | 95° |
| 2026-05-05 01:54 | 53.55079 | 18.92361 | 26972 ft | 487 kts | 76° |
| 2026-05-05 01:54 | 53.56103 | 18.97802 | 27276 ft | 490 kts | 71° |
| 2026-05-05 01:55 | 53.57208 | 19.03239 | 27604 ft | 492 kts | 71° |
| 2026-05-05 01:55 | 53.58326 | 19.08698 | 27927 ft | 494 kts | 70° |
| 2026-05-05 01:55 | 53.59431 | 19.14106 | 28234 ft | 496 kts | 70° |
| 2026-05-05 01:55 | 53.60551 | 19.19613 | 28553 ft | 499 kts | 70° |
| 2026-05-05 01:56 | 53.61673 | 19.25166 | 28860 ft | 501 kts | 70° |
| 2026-05-05 01:56 | 53.62787 | 19.30737 | 29170 ft | 503 kts | 70° |
| 2026-05-05 01:56 | 53.63900 | 19.36332 | 29559 ft | 502 kts | 70° |
| 2026-05-05 01:56 | 53.65004 | 19.41903 | 30001 ft | 501 kts | 70° |
| 2026-05-05 01:57 | 53.66109 | 19.47483 | 30396 ft | 501 kts | 70° |
| 2026-05-05 01:57 | 53.67209 | 19.53044 | 30802 ft | 500 kts | 70° |
| 2026-05-05 01:57 | 53.68308 | 19.58610 | 31190 ft | 499 kts | 70° |
| 2026-05-05 01:57 | 53.69405 | 19.64166 | 31563 ft | 499 kts | 70° |
| 2026-05-05 01:58 | 53.70496 | 19.69720 | 31948 ft | 498 kts | 70° |
| 2026-05-05 01:58 | 53.71581 | 19.75268 | 32322 ft | 497 kts | 70° |
| 2026-05-05 01:58 | 53.72663 | 19.80815 | 32665 ft | 497 kts | 71° |
| 2026-05-05 01:58 | 53.73742 | 19.86363 | 33018 ft | 497 kts | 71° |
| 2026-05-05 01:59 | 53.74816 | 19.91908 | 33378 ft | 496 kts | 71° |
| 2026-05-05 01:59 | 53.75883 | 19.97440 | 33727 ft | 495 kts | 71° |
| 2026-05-05 01:59 | 53.76949 | 20.02969 | 34063 ft | 494 kts | 71° |
| 2026-05-05 01:59 | 53.77998 | 20.08435 | 34405 ft | 493 kts | 71° |
| 2026-05-05 02:00 | 53.79053 | 20.13955 | 34736 ft | 493 kts | 71° |
| 2026-05-05 02:00 | 53.80105 | 20.19482 | 34909 ft | 494 kts | 71° |
| 2026-05-05 02:00 | 53.82197 | 20.30533 | 34941 ft | 492 kts | 71° |
| 2026-05-05 02:01 | 53.84282 | 20.41560 | 34941 ft | 492 kts | 71° |
| 2026-05-05 02:01 | 53.86352 | 20.52585 | 34945 ft | 491 kts | 71° |
| 2026-05-05 02:02 | 53.88064 | 20.61741 | 34946 ft | 490 kts | 71° |
| 2026-05-05 02:02 | 53.90113 | 20.72742 | 34945 ft | 489 kts | 71° |
| 2026-05-05 02:03 | 53.92145 | 20.83757 | 34946 ft | 489 kts | 72° |
| 2026-05-05 02:03 | 53.94172 | 20.94785 | 34952 ft | 489 kts | 72° |
| 2026-05-05 02:04 | 53.96192 | 21.05816 | 34955 ft | 489 kts | 72° |
| 2026-05-05 02:04 | 53.98189 | 21.16784 | 34955 ft | 489 kts | 72° |
| 2026-05-05 02:05 | 54.00180 | 21.27824 | 34954 ft | 489 kts | 72° |
| 2026-05-05 02:05 | 54.02170 | 21.38890 | 34941 ft | 490 kts | 72° |
| 2026-05-05 02:06 | 54.04164 | 21.49986 | 34930 ft | 491 kts | 72° |
| 2026-05-05 02:06 | 54.06143 | 21.61123 | 34933 ft | 492 kts | 72° |
| 2026-05-05 02:07 | 54.08114 | 21.72280 | 34945 ft | 492 kts | 72° |
| 2026-05-05 02:07 | 54.10076 | 21.83446 | 34952 ft | 492 kts | 72° |
| 2026-05-05 02:08 | 54.12018 | 21.94624 | 34953 ft | 492 kts | 72° |
| 2026-05-05 02:08 | 54.13959 | 22.05829 | 34957 ft | 492 kts | 72° |
| 2026-05-05 02:09 | 54.15894 | 22.17033 | 34957 ft | 493 kts | 73° |
| 2026-05-05 02:09 | 54.17819 | 22.28269 | 34957 ft | 493 kts | 73° |
| 2026-05-05 02:10 | 54.19722 | 22.39464 | 34952 ft | 494 kts | 73° |
| 2026-05-05 02:10 | 54.21624 | 22.50751 | 34955 ft | 495 kts | 73° |
| 2026-05-05 02:11 | 54.23514 | 22.62068 | 34952 ft | 495 kts | 73° |
| 2026-05-05 02:11 | 54.25407 | 22.73400 | 34952 ft | 496 kts | 73° |
| 2026-05-05 02:12 | 54.28230 | 22.90433 | 34953 ft | 496 kts | 73° |
| 2026-05-05 02:12 | 54.29166 | 22.96121 | 34832 ft | 496 kts | 73° |
| 2026-05-05 02:13 | 54.30107 | 23.01848 | 33746 ft | 500 kts | 73° |
| 2026-05-05 02:13 | 54.31044 | 23.07624 | 32001 ft | 507 kts | 73° |
| 2026-05-05 02:13 | 54.31975 | 23.13485 | 30184 ft | 512 kts | 74° |
| 2026-05-05 02:13 | 54.32888 | 23.19330 | 28304 ft | 516 kts | 74° |
| 2026-05-05 02:14 | 54.33803 | 23.25251 | 26763 ft | 510 kts | 75° |
| 2026-05-05 02:14 | 54.34699 | 23.31090 | 25337 ft | 501 kts | 75° |
| 2026-05-05 02:14 | 54.35576 | 23.36811 | 23902 ft | 491 kts | 75° |
| 2026-05-05 02:14 | 54.36435 | 23.42417 | 22497 ft | 481 kts | 75° |
| 2026-05-05 02:15 | 54.37278 | 23.47904 | 21419 ft | 465 kts | 75° |
| 2026-05-05 02:15 | 54.38077 | 23.53102 | 21154 ft | 444 kts | 75° |
| 2026-05-05 02:15 | 54.38867 | 23.58259 | 21155 ft | 448 kts | 75° |
| 2026-05-05 02:15 | 54.39656 | 23.63431 | 21152 ft | 449 kts | 76° |
| 2026-05-05 02:16 | 54.40447 | 23.68625 | 21154 ft | 448 kts | 75° |
| 2026-05-05 02:16 | 54.41234 | 23.73805 | 21154 ft | 448 kts | 76° |
| 2026-05-05 02:16 | 54.42016 | 23.78983 | 21150 ft | 448 kts | 76° |
| 2026-05-05 02:16 | 54.42795 | 23.84168 | 21152 ft | 448 kts | 76° |
| 2026-05-05 02:17 | 54.43574 | 23.89354 | 21148 ft | 448 kts | 76° |
| 2026-05-05 02:17 | 54.44346 | 23.94523 | 21149 ft | 448 kts | 76° |
| 2026-05-05 02:17 | 54.45120 | 23.99717 | 20773 ft | 447 kts | 76° |
| 2026-05-05 02:17 | 54.45892 | 24.04914 | 19398 ft | 451 kts | 76° |
| 2026-05-05 02:18 | 54.46659 | 24.10137 | 18225 ft | 450 kts | 76° |
| 2026-05-05 02:18 | 54.47417 | 24.15318 | 17424 ft | 438 kts | 76° |
| 2026-05-05 02:18 | 54.48339 | 24.20220 | 16898 ft | 424 kts | 67° |
| 2026-05-05 02:18 | 54.49669 | 24.24634 | 16383 ft | 408 kts | 56° |
| 2026-05-05 02:19 | 54.51300 | 24.28513 | 15893 ft | 393 kts | 50° |
| 2026-05-05 02:19 | 54.52944 | 24.32183 | 15400 ft | 385 kts | 51° |
| 2026-05-05 02:19 | 54.54577 | 24.35852 | 14915 ft | 385 kts | 51° |
| 2026-05-05 02:19 | 54.56194 | 24.39507 | 14411 ft | 382 kts | 51° |
| 2026-05-05 02:20 | 54.57798 | 24.43145 | 13915 ft | 381 kts | 51° |
| 2026-05-05 02:20 | 54.59395 | 24.46767 | 13400 ft | 379 kts | 51° |
| 2026-05-05 02:20 | 54.60983 | 24.50368 | 12897 ft | 376 kts | 51° |
| 2026-05-05 02:20 | 54.62560 | 24.53952 | 12381 ft | 374 kts | 51° |
| 2026-05-05 02:21 | 54.64131 | 24.57523 | 11874 ft | 372 kts | 51° |
| 2026-05-05 02:21 | 54.65680 | 24.61052 | 11634 ft | 362 kts | 51° |
| 2026-05-05 02:21 | 54.67171 | 24.64461 | 11498 ft | 349 kts | 51° |
| 2026-05-05 02:21 | 54.68606 | 24.67754 | 11371 ft | 337 kts | 51° |
| 2026-05-05 02:22 | 54.69998 | 24.70954 | 11161 ft | 329 kts | 51° |
| 2026-05-05 02:22 | 54.71362 | 24.74080 | 11016 ft | 323 kts | 51° |
| 2026-05-05 02:22 | 54.72721 | 24.77184 | 10928 ft | 324 kts | 51° |
| 2026-05-05 02:22 | 54.74067 | 24.80257 | 10592 ft | 327 kts | 50° |
| 2026-05-05 02:23 | 54.75439 | 24.83398 | 10238 ft | 324 kts | 51° |
| 2026-05-05 02:23 | 54.76797 | 24.86522 | 9778 ft | 325 kts | 51° |
| 2026-05-05 02:23 | 54.78139 | 24.89617 | 9495 ft | 319 kts | 50° |
| 2026-05-05 02:23 | 54.79470 | 24.92694 | 9088 ft | 319 kts | 51° |
| 2026-05-05 02:24 | 54.80798 | 24.95764 | 8735 ft | 317 kts | 51° |
| 2026-05-05 02:24 | 54.82113 | 24.98820 | 8381 ft | 315 kts | 51° |
| 2026-05-05 02:24 | 54.83419 | 25.01853 | 8027 ft | 312 kts | 50° |
| 2026-05-05 02:24 | 54.84716 | 25.04868 | 7660 ft | 311 kts | 51° |
| 2026-05-05 02:25 | 54.85764 | 25.08123 | 7238 ft | 308 kts | 69° |
| 2026-05-05 02:25 | 54.86225 | 25.11736 | 6678 ft | 307 kts | 86° |
| 2026-05-05 02:25 | 54.86073 | 25.15393 | 6120 ft | 301 kts | 104° |
| 2026-05-05 02:25 | 54.85589 | 25.18864 | 5644 ft | 287 kts | 105° |
| 2026-05-05 02:26 | 54.85129 | 25.22110 | 5273 ft | 273 kts | 105° |
| 2026-05-05 02:26 | 54.84648 | 25.25248 | 5166 ft | 271 kts | 112° |
| 2026-05-05 02:26 | 54.83955 | 25.28250 | 5035 ft | 269 kts | 114° |
| 2026-05-05 02:26 | 54.83238 | 25.31307 | 4620 ft | 267 kts | 115° |
| 2026-05-05 02:27 | 54.82283 | 25.34015 | 4085 ft | 274 kts | 134° |
| 2026-05-05 02:27 | 54.80854 | 25.36122 | 3783 ft | 261 kts | 153° |
| 2026-05-05 02:27 | 54.79276 | 25.37306 | 3587 ft | 237 kts | 170° |
| 2026-05-05 02:27 | 54.77722 | 25.37686 | 3394 ft | 214 kts | 184° |
| 2026-05-05 02:28 | 54.76332 | 25.37433 | 3151 ft | 189 kts | 198° |
| 2026-05-05 02:28 | 54.75154 | 25.36745 | 2910 ft | 171 kts | 207° |
| 2026-05-05 02:28 | 54.74089 | 25.36005 | 2702 ft | 157 kts | 207° |
| 2026-05-05 02:28 | 54.73104 | 25.35320 | 2484 ft | 149 kts | 206° |
| 2026-05-05 02:29 | 54.72153 | 25.34656 | 2293 ft | 146 kts | 206° |
| 2026-05-05 02:29 | 54.71211 | 25.33997 | 2095 ft | 146 kts | 206° |
| 2026-05-05 02:29 | 54.70269 | 25.33341 | 1899 ft | 146 kts | 206° |
| 2026-05-05 02:29 | 54.69327 | 25.32681 | 1701 ft | 146 kts | 206° |
| 2026-05-05 02:30 | 54.68386 | 25.32015 | 1528 ft | 146 kts | 206° |
| 2026-05-05 02:30 | 54.67443 | 25.31363 | 1327 ft | 146 kts | 205° |
| 2026-05-05 02:30 | 54.66500 | 25.30722 | 1097 ft | 145 kts | 205° |
| 2026-05-05 02:30 | 54.65566 | 25.30072 | 937 ft | 145 kts | 205° |
| 2026-05-05 02:31 | 54.64635 | 25.29423 | 743 ft | 144 kts | 204° |
| 2026-05-05 02:31 | 54.63738 | 25.28801 | 634 ft | 127 kts | 203° |
| 2026-05-05 02:31 | 54.63046 | 25.28322 | 603 ft | 83 kts | 201° |
| 2026-05-05 02:31 | 54.62621 | 25.28027 | 600 ft | 49 kts | 200° |
| 2026-05-05 02:32 | 54.62427 | 25.27844 | 612 ft | 22 kts | 244° |
| 2026-05-05 02:32 | 54.62490 | 25.27694 | 613 ft | 12 kts | 323° |
| 2026-05-05 02:32 | 54.62521 | 25.27664 | 604 ft | 2 kts | 337° |